sensor_id;sensor_type;location;lat;lon;timestamp;P1;durP1;ratioP1;P2;durP2;ratioP2
9174;SDS011;54374;50.196;8.050;2022-09-02T00:02:14;3.28;;;2.95;;
9174;SDS011;54374;50.196;8.050;2022-09-02T00:04:41;3.70;;;2.72;;
9174;SDS011;54374;50.196;8.050;2022-09-02T00:07:09;5.20;;;3.30;;
9174;SDS011;54374;50.196;8.050;2022-09-02T00:09:36;3.97;;;2.90;;
9174;SDS011;54374;50.196;8.050;2022-09-02T00:12:04;3.83;;;2.70;;
9174;SDS011;54374;50.196;8.050;2022-09-02T00:14:34;4.32;;;3.05;;
9174;SDS011;54374;50.196;8.050;2022-09-02T00:17:02;3.53;;;3.22;;
9174;SDS011;54374;50.196;8.050;2022-09-02T00:19:30;5.05;;;3.22;;
9174;SDS011;54374;50.196;8.050;2022-09-02T00:21:57;4.63;;;2.92;;
9174;SDS011;54374;50.196;8.050;2022-09-02T00:24:26;3.63;;;3.33;;
9174;SDS011;54374;50.196;8.050;2022-09-02T00:26:53;4.30;;;3.25;;
9174;SDS011;54374;50.196;8.050;2022-09-02T00:29:20;3.40;;;3.10;;
9174;SDS011;54374;50.196;8.050;2022-09-02T00:31:48;3.33;;;3.03;;
9174;SDS011;54374;50.196;8.050;2022-09-02T00:34:15;3.80;;;2.90;;
9174;SDS011;54374;50.196;8.050;2022-09-02T00:36:42;7.40;;;3.58;;
9174;SDS011;54374;50.196;8.050;2022-09-02T00:39:10;3.28;;;2.97;;
9174;SDS011;54374;50.196;8.050;2022-09-02T00:41:38;4.13;;;2.78;;
9174;SDS011;54374;50.196;8.050;2022-09-02T00:44:07;4.68;;;3.08;;
9174;SDS011;54374;50.196;8.050;2022-09-02T00:46:36;3.53;;;2.80;;
9174;SDS011;54374;50.196;8.050;2022-09-02T00:49:06;4.03;;;2.88;;
9174;SDS011;54374;50.196;8.050;2022-09-02T00:51:37;3.10;;;2.75;;
9174;SDS011;54374;50.196;8.050;2022-09-02T00:54:08;3.85;;;3.42;;
9174;SDS011;54374;50.196;8.050;2022-09-02T00:56:36;3.75;;;3.30;;
9174;SDS011;54374;50.196;8.050;2022-09-02T00:59:05;4.20;;;3.15;;
9174;SDS011;54374;50.196;8.050;2022-09-02T01:01:33;6.10;;;3.00;;
9174;SDS011;54374;50.196;8.050;2022-09-02T01:04:00;3.65;;;3.17;;
9174;SDS011;54374;50.196;8.050;2022-09-02T01:06:28;3.13;;;2.83;;
9174;SDS011;54374;50.196;8.050;2022-09-02T01:08:59;4.15;;;3.00;;
9174;SDS011;54374;50.196;8.050;2022-09-02T01:11:34;5.88;;;3.10;;
9174;SDS011;54374;50.196;8.050;2022-09-02T01:14:03;3.67;;;3.00;;
9174;SDS011;54374;50.196;8.050;2022-09-02T01:16:33;3.60;;;3.05;;
9174;SDS011;54374;50.196;8.050;2022-09-02T01:19:05;4.80;;;2.90;;
9174;SDS011;54374;50.196;8.050;2022-09-02T01:21:43;3.35;;;2.70;;
9174;SDS011;54374;50.196;8.050;2022-09-02T01:24:11;3.55;;;3.17;;
9174;SDS011;54374;50.196;8.050;2022-09-02T01:26:39;2.92;;;2.63;;
9174;SDS011;54374;50.196;8.050;2022-09-02T01:29:06;3.65;;;3.35;;
9174;SDS011;54374;50.196;8.050;2022-09-02T01:31:33;4.93;;;3.15;;
9174;SDS011;54374;50.196;8.050;2022-09-02T01:33:59;3.22;;;2.65;;
9174;SDS011;54374;50.196;8.050;2022-09-02T01:36:27;4.68;;;3.10;;
9174;SDS011;54374;50.196;8.050;2022-09-02T01:38:55;4.80;;;3.30;;
9174;SDS011;54374;50.196;8.050;2022-09-02T01:41:23;3.35;;;3.05;;
9174;SDS011;54374;50.196;8.050;2022-09-02T01:43:49;3.78;;;3.00;;
9174;SDS011;54374;50.196;8.050;2022-09-02T01:46:16;3.67;;;3.33;;
9174;SDS011;54374;50.196;8.050;2022-09-02T01:48:45;4.57;;;3.20;;
9174;SDS011;54374;50.196;8.050;2022-09-02T01:51:14;3.40;;;2.72;;
9174;SDS011;54374;50.196;8.050;2022-09-02T01:53:43;3.60;;;3.28;;
9174;SDS011;54374;50.196;8.050;2022-09-02T01:56:13;5.47;;;3.22;;
9174;SDS011;54374;50.196;8.050;2022-09-02T01:58:40;3.63;;;3.15;;
9174;SDS011;54374;50.196;8.050;2022-09-02T02:04:27;4.70;;;3.25;;
9174;SDS011;54374;50.196;8.050;2022-09-02T02:06:56;4.10;;;3.20;;
9174;SDS011;54374;50.196;8.050;2022-09-02T02:09:23;3.33;;;2.85;;
9174;SDS011;54374;50.196;8.050;2022-09-02T02:11:53;3.30;;;3.00;;
9174;SDS011;54374;50.196;8.050;2022-09-02T02:14:20;3.10;;;2.85;;
9174;SDS011;54374;50.196;8.050;2022-09-02T02:16:48;3.20;;;2.90;;
9174;SDS011;54374;50.196;8.050;2022-09-02T02:19:16;3.67;;;2.83;;
9174;SDS011;54374;50.196;8.050;2022-09-02T02:21:43;5.25;;;3.15;;
9174;SDS011;54374;50.196;8.050;2022-09-02T02:24:10;4.88;;;3.20;;
9174;SDS011;54374;50.196;8.050;2022-09-02T02:26:37;7.93;;;3.70;;
9174;SDS011;54374;50.196;8.050;2022-09-02T02:29:08;3.85;;;2.95;;
9174;SDS011;54374;50.196;8.050;2022-09-02T02:31:36;3.63;;;3.13;;
9174;SDS011;54374;50.196;8.050;2022-09-02T02:34:04;3.45;;;3.00;;
9174;SDS011;54374;50.196;8.050;2022-09-02T02:36:32;3.88;;;3.13;;
9174;SDS011;54374;50.196;8.050;2022-09-02T02:39:02;4.20;;;3.22;;
9174;SDS011;54374;50.196;8.050;2022-09-02T02:41:30;3.80;;;3.15;;
9174;SDS011;54374;50.196;8.050;2022-09-02T02:43:58;4.57;;;2.63;;
9174;SDS011;54374;50.196;8.050;2022-09-02T02:46:27;3.60;;;3.28;;
9174;SDS011;54374;50.196;8.050;2022-09-02T02:48:57;5.47;;;3.42;;
9174;SDS011;54374;50.196;8.050;2022-09-02T02:51:25;5.65;;;3.00;;
9174;SDS011;54374;50.196;8.050;2022-09-02T02:53:52;5.18;;;3.08;;
9174;SDS011;54374;50.196;8.050;2022-09-02T02:56:19;6.35;;;3.10;;
9174;SDS011;54374;50.196;8.050;2022-09-02T02:58:52;4.53;;;3.42;;
9174;SDS011;54374;50.196;8.050;2022-09-02T03:01:24;4.15;;;3.40;;
9174;SDS011;54374;50.196;8.050;2022-09-02T03:03:53;3.15;;;2.85;;
9174;SDS011;54374;50.196;8.050;2022-09-02T03:06:21;4.30;;;3.30;;
9174;SDS011;54374;50.196;8.050;2022-09-02T03:08:49;4.18;;;3.22;;
9174;SDS011;54374;50.196;8.050;2022-09-02T03:11:18;3.20;;;2.90;;
9174;SDS011;54374;50.196;8.050;2022-09-02T03:13:47;4.50;;;3.15;;
9174;SDS011;54374;50.196;8.050;2022-09-02T03:16:16;2.95;;;2.70;;
9174;SDS011;54374;50.196;8.050;2022-09-02T03:18:45;3.58;;;3.00;;
9174;SDS011;54374;50.196;8.050;2022-09-02T03:21:14;3.45;;;2.88;;
9174;SDS011;54374;50.196;8.050;2022-09-02T03:23:43;3.05;;;2.75;;
9174;SDS011;54374;50.196;8.050;2022-09-02T03:26:12;3.85;;;3.45;;
9174;SDS011;54374;50.196;8.050;2022-09-02T03:28:41;5.07;;;3.30;;
9174;SDS011;54374;50.196;8.050;2022-09-02T03:31:12;13.88;;;4.07;;
9174;SDS011;54374;50.196;8.050;2022-09-02T03:33:40;5.15;;;3.40;;
9174;SDS011;54374;50.196;8.050;2022-09-02T03:36:07;3.15;;;2.90;;
9174;SDS011;54374;50.196;8.050;2022-09-02T03:38:45;6.95;;;3.10;;
9174;SDS011;54374;50.196;8.050;2022-09-02T03:41:12;3.50;;;3.20;;
9174;SDS011;54374;50.196;8.050;2022-09-02T03:43:39;3.17;;;2.88;;
9174;SDS011;54374;50.196;8.050;2022-09-02T03:46:06;3.83;;;3.22;;
9174;SDS011;54374;50.196;8.050;2022-09-02T03:48:35;4.10;;;3.55;;
9174;SDS011;54374;50.196;8.050;2022-09-02T03:51:02;3.67;;;3.35;;
9174;SDS011;54374;50.196;8.050;2022-09-02T03:53:30;3.63;;;3.08;;
9174;SDS011;54374;50.196;8.050;2022-09-02T03:56:02;4.53;;;3.15;;
9174;SDS011;54374;50.196;8.050;2022-09-02T03:58:31;3.28;;;2.97;;
9174;SDS011;54374;50.196;8.050;2022-09-02T04:00:59;3.20;;;2.90;;
9174;SDS011;54374;50.196;8.050;2022-09-02T04:03:27;3.47;;;3.08;;
9174;SDS011;54374;50.196;8.050;2022-09-02T04:05:54;3.35;;;3.03;;
9174;SDS011;54374;50.196;8.050;2022-09-02T04:08:23;3.00;;;2.78;;
9174;SDS011;54374;50.196;8.050;2022-09-02T04:10:52;5.22;;;3.42;;
9174;SDS011;54374;50.196;8.050;2022-09-02T04:13:22;5.43;;;3.28;;
9174;SDS011;54374;50.196;8.050;2022-09-02T04:15:49;3.35;;;2.75;;
9174;SDS011;54374;50.196;8.050;2022-09-02T04:18:20;3.38;;;3.08;;
9174;SDS011;54374;50.196;8.050;2022-09-02T04:20:48;3.20;;;2.83;;
9174;SDS011;54374;50.196;8.050;2022-09-02T04:23:16;3.53;;;3.00;;
9174;SDS011;54374;50.196;8.050;2022-09-02T04:25:43;6.70;;;3.15;;
9174;SDS011;54374;50.196;8.050;2022-09-02T04:28:13;5.45;;;3.08;;
9174;SDS011;54374;50.196;8.050;2022-09-02T04:30:41;3.97;;;2.63;;
9174;SDS011;54374;50.196;8.050;2022-09-02T04:33:10;5.88;;;3.35;;
9174;SDS011;54374;50.196;8.050;2022-09-02T04:35:38;3.60;;;3.30;;
9174;SDS011;54374;50.196;8.050;2022-09-02T04:38:07;3.90;;;3.50;;
9174;SDS011;54374;50.196;8.050;2022-09-02T04:40:34;8.98;;;3.10;;
9174;SDS011;54374;50.196;8.050;2022-09-02T04:43:05;3.85;;;3.47;;
9174;SDS011;54374;50.196;8.050;2022-09-02T04:45:32;2.78;;;2.50;;
9174;SDS011;54374;50.196;8.050;2022-09-02T04:48:02;5.25;;;3.03;;
9174;SDS011;54374;50.196;8.050;2022-09-02T04:50:30;3.10;;;2.60;;
9174;SDS011;54374;50.196;8.050;2022-09-02T04:52:57;3.75;;;3.38;;
9174;SDS011;54374;50.196;8.050;2022-09-02T04:55:25;7.10;;;3.83;;
9174;SDS011;54374;50.196;8.050;2022-09-02T04:57:53;4.43;;;3.65;;
9174;SDS011;54374;50.196;8.050;2022-09-02T05:00:20;4.38;;;3.25;;
9174;SDS011;54374;50.196;8.050;2022-09-02T05:02:49;3.40;;;2.80;;
9174;SDS011;54374;50.196;8.050;2022-09-02T05:05:18;3.20;;;2.90;;
9174;SDS011;54374;50.196;8.050;2022-09-02T05:07:45;4.10;;;3.25;;
9174;SDS011;54374;50.196;8.050;2022-09-02T05:10:12;4.85;;;3.00;;
9174;SDS011;54374;50.196;8.050;2022-09-02T05:12:42;3.95;;;3.10;;
9174;SDS011;54374;50.196;8.050;2022-09-02T05:15:10;4.55;;;2.85;;
9174;SDS011;54374;50.196;8.050;2022-09-02T05:17:37;4.00;;;3.22;;
9174;SDS011;54374;50.196;8.050;2022-09-02T05:20:07;3.55;;;3.08;;
9174;SDS011;54374;50.196;8.050;2022-09-02T05:22:37;2.92;;;2.63;;
9174;SDS011;54374;50.196;8.050;2022-09-02T05:25:06;4.88;;;2.67;;
9174;SDS011;54374;50.196;8.050;2022-09-02T05:27:35;3.75;;;3.45;;
9174;SDS011;54374;50.196;8.050;2022-09-02T05:30:02;3.33;;;3.00;;
9174;SDS011;54374;50.196;8.050;2022-09-02T05:32:32;8.27;;;3.30;;
9174;SDS011;54374;50.196;8.050;2022-09-02T05:34:59;5.07;;;3.10;;
9174;SDS011;54374;50.196;8.050;2022-09-02T05:37:26;5.75;;;3.25;;
9174;SDS011;54374;50.196;8.050;2022-09-02T05:39:58;2.78;;;2.58;;
9174;SDS011;54374;50.196;8.050;2022-09-02T05:42:25;5.32;;;3.03;;
9174;SDS011;54374;50.196;8.050;2022-09-02T05:44:54;4.35;;;2.83;;
9174;SDS011;54374;50.196;8.050;2022-09-02T05:47:22;4.43;;;3.10;;
9174;SDS011;54374;50.196;8.050;2022-09-02T05:49:51;3.30;;;2.85;;
9174;SDS011;54374;50.196;8.050;2022-09-02T05:52:20;3.88;;;3.22;;
9174;SDS011;54374;50.196;8.050;2022-09-02T05:54:51;2.63;;;2.42;;
9174;SDS011;54374;50.196;8.050;2022-09-02T05:57:21;4.38;;;3.08;;
9174;SDS011;54374;50.196;8.050;2022-09-02T05:59:54;3.67;;;2.65;;
9174;SDS011;54374;50.196;8.050;2022-09-02T06:02:24;3.30;;;2.65;;
9174;SDS011;54374;50.196;8.050;2022-09-02T06:04:52;3.25;;;2.95;;
9174;SDS011;54374;50.196;8.050;2022-09-02T06:07:20;6.45;;;3.38;;
9174;SDS011;54374;50.196;8.050;2022-09-02T06:09:51;3.75;;;3.20;;
9174;SDS011;54374;50.196;8.050;2022-09-02T06:12:23;3.92;;;3.05;;
9174;SDS011;54374;50.196;8.050;2022-09-02T06:14:53;3.13;;;2.80;;
9174;SDS011;54374;50.196;8.050;2022-09-02T06:17:21;3.90;;;3.55;;
9174;SDS011;54374;50.196;8.050;2022-09-02T06:19:50;5.32;;;3.20;;
9174;SDS011;54374;50.196;8.050;2022-09-02T06:22:17;3.45;;;2.70;;
9174;SDS011;54374;50.196;8.050;2022-09-02T06:24:46;3.63;;;3.10;;
9174;SDS011;54374;50.196;8.050;2022-09-02T06:27:18;4.05;;;3.50;;
9174;SDS011;54374;50.196;8.050;2022-09-02T06:29:50;3.15;;;2.85;;
9174;SDS011;54374;50.196;8.050;2022-09-02T06:32:20;3.97;;;3.65;;
9174;SDS011;54374;50.196;8.050;2022-09-02T06:34:49;6.78;;;3.55;;
9174;SDS011;54374;50.196;8.050;2022-09-02T06:37:16;3.05;;;2.80;;
9174;SDS011;54374;50.196;8.050;2022-09-02T06:39:43;3.72;;;3.42;;
9174;SDS011;54374;50.196;8.050;2022-09-02T06:42:16;4.05;;;3.17;;
9174;SDS011;54374;50.196;8.050;2022-09-02T06:45:04;3.75;;;3.42;;
9174;SDS011;54374;50.196;8.050;2022-09-02T06:47:32;3.22;;;3.00;;
9174;SDS011;54374;50.196;8.050;2022-09-02T06:50:00;6.65;;;3.03;;
9174;SDS011;54374;50.196;8.050;2022-09-02T06:52:27;3.17;;;2.90;;
9174;SDS011;54374;50.196;8.050;2022-09-02T06:54:54;3.08;;;2.78;;
9174;SDS011;54374;50.196;8.050;2022-09-02T06:57:21;2.90;;;2.60;;
9174;SDS011;54374;50.196;8.050;2022-09-02T06:59:48;4.38;;;3.38;;
9174;SDS011;54374;50.196;8.050;2022-09-02T07:02:19;3.10;;;2.80;;
9174;SDS011;54374;50.196;8.050;2022-09-02T07:04:47;6.28;;;4.38;;
9174;SDS011;54374;50.196;8.050;2022-09-02T07:07:33;12.00;;;8.20;;
9174;SDS011;54374;50.196;8.050;2022-09-02T07:10:06;13.25;;;9.45;;
9174;SDS011;54374;50.196;8.050;2022-09-02T07:12:34;16.55;;;9.05;;
9174;SDS011;54374;50.196;8.050;2022-09-02T07:15:07;10.30;;;5.70;;
9174;SDS011;54374;50.196;8.050;2022-09-02T07:17:39;6.68;;;4.25;;
9174;SDS011;54374;50.196;8.050;2022-09-02T07:20:10;15.73;;;10.13;;
9174;SDS011;54374;50.196;8.050;2022-09-02T07:22:43;14.43;;;7.05;;
9174;SDS011;54374;50.196;8.050;2022-09-02T07:25:13;15.25;;;7.63;;
9174;SDS011;54374;50.196;8.050;2022-09-02T07:27:40;8.02;;;4.80;;
9174;SDS011;54374;50.196;8.050;2022-09-02T07:30:08;14.38;;;5.07;;
9174;SDS011;54374;50.196;8.050;2022-09-02T07:32:39;11.57;;;5.60;;
9174;SDS011;54374;50.196;8.050;2022-09-02T07:35:07;7.50;;;4.20;;
9174;SDS011;54374;50.196;8.050;2022-09-02T07:37:35;2.60;;;2.40;;
9174;SDS011;54374;50.196;8.050;2022-09-02T07:40:05;3.30;;;2.45;;
9174;SDS011;54374;50.196;8.050;2022-09-02T07:42:36;5.13;;;3.00;;
9174;SDS011;54374;50.196;8.050;2022-09-02T07:45:04;3.53;;;2.75;;
9174;SDS011;54374;50.196;8.050;2022-09-02T07:47:34;3.17;;;2.60;;
9174;SDS011;54374;50.196;8.050;2022-09-02T07:50:03;3.55;;;2.60;;
9174;SDS011;54374;50.196;8.050;2022-09-02T07:52:32;4.10;;;2.90;;
9174;SDS011;54374;50.196;8.050;2022-09-02T07:54:59;4.80;;;2.20;;
9174;SDS011;54374;50.196;8.050;2022-09-02T07:57:27;3.33;;;2.72;;
9174;SDS011;54374;50.196;8.050;2022-09-02T07:59:56;3.50;;;2.58;;
9174;SDS011;54374;50.196;8.050;2022-09-02T08:02:23;3.27;;;2.90;;
9174;SDS011;54374;50.196;8.050;2022-09-02T08:04:51;2.73;;;2.10;;
9174;SDS011;54374;50.196;8.050;2022-09-02T08:07:20;2.70;;;1.90;;
9174;SDS011;54374;50.196;8.050;2022-09-02T08:09:48;1.63;;;1.53;;
9174;SDS011;54374;50.196;8.050;2022-09-02T08:12:15;3.60;;;2.00;;
9174;SDS011;54374;50.196;8.050;2022-09-02T08:14:42;4.20;;;2.00;;
9174;SDS011;54374;50.196;8.050;2022-09-02T08:17:10;2.37;;;2.00;;
9174;SDS011;54374;50.196;8.050;2022-09-02T08:19:37;2.37;;;1.70;;
9174;SDS011;54374;50.196;8.050;2022-09-02T08:22:04;2.23;;;1.70;;
9174;SDS011;54374;50.196;8.050;2022-09-02T08:24:32;1.77;;;1.60;;
9174;SDS011;54374;50.196;8.050;2022-09-02T08:27:00;1.97;;;1.67;;
9174;SDS011;54374;50.196;8.050;2022-09-02T08:29:30;2.63;;;1.90;;
9174;SDS011;54374;50.196;8.050;2022-09-02T08:31:57;1.70;;;1.60;;
9174;SDS011;54374;50.196;8.050;2022-09-02T08:34:24;1.40;;;1.30;;
9174;SDS011;54374;50.196;8.050;2022-09-02T08:36:51;1.63;;;1.53;;
9174;SDS011;54374;50.196;8.050;2022-09-02T08:39:17;2.50;;;1.57;;
9174;SDS011;54374;50.196;8.050;2022-09-02T08:41:46;1.40;;;1.30;;
9174;SDS011;54374;50.196;8.050;2022-09-02T08:44:24;1.40;;;1.30;;
9174;SDS011;54374;50.196;8.050;2022-09-02T08:46:53;2.77;;;1.47;;
9174;SDS011;54374;50.196;8.050;2022-09-02T08:49:27;1.63;;;1.33;;
9174;SDS011;54374;50.196;8.050;2022-09-02T08:51:59;1.07;;;1.00;;
9174;SDS011;54374;50.196;8.050;2022-09-02T08:54:29;2.40;;;1.30;;
9174;SDS011;54374;50.196;8.050;2022-09-02T08:57:02;1.23;;;1.13;;
9174;SDS011;54374;50.196;8.050;2022-09-02T08:59:30;1.40;;;1.30;;
9174;SDS011;54374;50.196;8.050;2022-09-02T09:01:59;1.50;;;1.40;;
9174;SDS011;54374;50.196;8.050;2022-09-02T09:04:36;1.53;;;1.43;;
9174;SDS011;54374;50.196;8.050;2022-09-02T09:07:19;1.83;;;1.60;;
9174;SDS011;54374;50.196;8.050;2022-09-02T09:09:57;1.80;;;1.30;;
9174;SDS011;54374;50.196;8.050;2022-09-02T09:12:35;1.63;;;1.40;;
9174;SDS011;54374;50.196;8.050;2022-09-02T09:15:12;1.50;;;1.37;;
9174;SDS011;54374;50.196;8.050;2022-09-02T09:17:44;2.40;;;1.57;;
9174;SDS011;54374;50.196;8.050;2022-09-02T09:20:14;1.90;;;1.30;;
9174;SDS011;54374;50.196;8.050;2022-09-02T09:22:44;1.23;;;1.13;;
9174;SDS011;54374;50.196;8.050;2022-09-02T09:25:14;1.87;;;1.50;;
9174;SDS011;54374;50.196;8.050;2022-09-02T09:27:44;3.20;;;1.30;;
9174;SDS011;54374;50.196;8.050;2022-09-02T09:30:12;1.50;;;1.40;;
9174;SDS011;54374;50.196;8.050;2022-09-02T09:32:39;2.00;;;1.37;;
9174;SDS011;54374;50.196;8.050;2022-09-02T09:35:10;1.43;;;1.13;;
9174;SDS011;54374;50.196;8.050;2022-09-02T09:37:39;1.63;;;1.50;;
9174;SDS011;54374;50.196;8.050;2022-09-02T09:40:21;4.17;;;1.50;;
9174;SDS011;54374;50.196;8.050;2022-09-02T09:42:56;2.23;;;1.43;;
9174;SDS011;54374;50.196;8.050;2022-09-02T09:45:27;3.40;;;1.37;;
9174;SDS011;54374;50.196;8.050;2022-09-02T09:48:12;1.80;;;1.50;;
9174;SDS011;54374;50.196;8.050;2022-09-02T09:50:47;2.00;;;1.63;;
9174;SDS011;54374;50.196;8.050;2022-09-02T09:53:35;2.97;;;1.90;;
9174;SDS011;54374;50.196;8.050;2022-09-02T09:56:03;1.80;;;1.23;;
9174;SDS011;54374;50.196;8.050;2022-09-02T09:58:34;4.30;;;1.40;;
9174;SDS011;54374;50.196;8.050;2022-09-02T10:01:12;1.63;;;1.30;;
9174;SDS011;54374;50.196;8.050;2022-09-02T10:03:47;1.30;;;1.20;;
9174;SDS011;54374;50.196;8.050;2022-09-02T10:06:18;5.90;;;1.40;;
9174;SDS011;54374;50.196;8.050;2022-09-02T10:08:51;2.73;;;1.40;;
9174;SDS011;54374;50.196;8.050;2022-09-02T10:11:21;1.50;;;1.40;;
9174;SDS011;54374;50.196;8.050;2022-09-02T10:13:57;1.73;;;1.40;;
9174;SDS011;54374;50.196;8.050;2022-09-02T10:16:33;1.50;;;1.40;;
9174;SDS011;54374;50.196;8.050;2022-09-02T10:19:14;1.50;;;1.30;;
9174;SDS011;54374;50.196;8.050;2022-09-02T10:24:47;2.97;;;1.63;;
9174;SDS011;54374;50.196;8.050;2022-09-02T10:27:28;1.40;;;1.30;;
9174;SDS011;54374;50.196;8.050;2022-09-02T10:30:05;1.70;;;1.60;;
9174;SDS011;54374;50.196;8.050;2022-09-02T10:32:37;1.50;;;1.40;;
9174;SDS011;54374;50.196;8.050;2022-09-02T10:35:16;1.63;;;1.53;;
9174;SDS011;54374;50.196;8.050;2022-09-02T10:38:09;3.63;;;1.50;;
9174;SDS011;54374;50.196;8.050;2022-09-02T10:40:47;1.60;;;1.50;;
9174;SDS011;54374;50.196;8.050;2022-09-02T10:43:24;3.43;;;1.90;;
9174;SDS011;54374;50.196;8.050;2022-09-02T10:46:07;3.63;;;1.30;;
9174;SDS011;54374;50.196;8.050;2022-09-02T10:48:39;1.57;;;1.30;;
9174;SDS011;54374;50.196;8.050;2022-09-02T10:51:16;2.30;;;1.30;;
9174;SDS011;54374;50.196;8.050;2022-09-02T10:56:38;1.87;;;1.13;;
9174;SDS011;54374;50.196;8.050;2022-09-02T10:59:11;2.47;;;1.20;;
9174;SDS011;54374;50.196;8.050;2022-09-02T11:01:44;1.60;;;1.27;;
9174;SDS011;54374;50.196;8.050;2022-09-02T11:04:18;1.80;;;1.10;;
9174;SDS011;54374;50.196;8.050;2022-09-02T11:06:50;1.23;;;1.00;;
9174;SDS011;54374;50.196;8.050;2022-09-02T11:09:21;1.90;;;1.30;;
9174;SDS011;54374;50.196;8.050;2022-09-02T11:11:56;2.03;;;1.30;;
9174;SDS011;54374;50.196;8.050;2022-09-02T11:14:29;1.17;;;1.00;;
9174;SDS011;54374;50.196;8.050;2022-09-02T11:17:01;2.03;;;1.17;;
9174;SDS011;54374;50.196;8.050;2022-09-02T11:19:34;2.13;;;1.30;;
9174;SDS011;54374;50.196;8.050;2022-09-02T11:22:06;1.80;;;1.10;;
9174;SDS011;54374;50.196;8.050;2022-09-02T11:24:43;1.80;;;1.40;;
9174;SDS011;54374;50.196;8.050;2022-09-02T11:27:16;1.30;;;1.20;;
9174;SDS011;54374;50.196;8.050;2022-09-02T11:29:52;1.47;;;1.07;;
9174;SDS011;54374;50.196;8.050;2022-09-02T11:32:27;3.07;;;1.30;;
9174;SDS011;54374;50.196;8.050;2022-09-02T11:35:01;2.80;;;1.13;;
9174;SDS011;54374;50.196;8.050;2022-09-02T11:37:36;1.20;;;1.10;;
9174;SDS011;54374;50.196;8.050;2022-09-02T11:40:08;12.83;;;1.70;;
9174;SDS011;54374;50.196;8.050;2022-09-02T11:43:02;1.80;;;1.27;;
9174;SDS011;54374;50.196;8.050;2022-09-02T11:45:51;1.20;;;1.10;;
9174;SDS011;54374;50.196;8.050;2022-09-02T11:48:42;1.93;;;1.10;;
9174;SDS011;54374;50.196;8.050;2022-09-02T11:51:25;1.47;;;1.27;;
9174;SDS011;54374;50.196;8.050;2022-09-02T11:54:13;2.20;;;1.40;;
9174;SDS011;54374;50.196;8.050;2022-09-02T11:56:44;1.33;;;1.23;;
9174;SDS011;54374;50.196;8.050;2022-09-02T11:59:20;1.43;;;1.17;;
9174;SDS011;54374;50.196;8.050;2022-09-02T12:01:49;1.10;;;1.00;;
9174;SDS011;54374;50.196;8.050;2022-09-02T12:04:21;1.60;;;1.27;;
9174;SDS011;54374;50.196;8.050;2022-09-02T12:09:49;4.40;;;1.47;;
9174;SDS011;54374;50.196;8.050;2022-09-02T12:15:23;2.20;;;1.20;;
9174;SDS011;54374;50.196;8.050;2022-09-02T12:29:35;2.40;;;1.40;;
9174;SDS011;54374;50.196;8.050;2022-09-02T12:32:02;1.67;;;1.30;;
9174;SDS011;54374;50.196;8.050;2022-09-02T12:34:51;2.37;;;1.37;;
9174;SDS011;54374;50.196;8.050;2022-09-02T12:40:21;1.20;;;1.10;;
9174;SDS011;54374;50.196;8.050;2022-09-02T12:42:57;2.27;;;1.10;;
9174;SDS011;54374;50.196;8.050;2022-09-02T12:45:29;1.67;;;1.10;;
9174;SDS011;54374;50.196;8.050;2022-09-02T12:47:59;1.60;;;1.40;;
9174;SDS011;54374;50.196;8.050;2022-09-02T12:53:25;2.27;;;1.50;;
9174;SDS011;54374;50.196;8.050;2022-09-02T12:55:57;3.13;;;1.70;;
9174;SDS011;54374;50.196;8.050;2022-09-02T12:58:29;1.40;;;1.17;;
9174;SDS011;54374;50.196;8.050;2022-09-02T13:01:02;3.70;;;1.27;;
9174;SDS011;54374;50.196;8.050;2022-09-02T13:03:45;1.37;;;1.10;;
9174;SDS011;54374;50.196;8.050;2022-09-02T13:06:31;2.50;;;1.30;;
9174;SDS011;54374;50.196;8.050;2022-09-02T13:09:16;1.20;;;1.10;;
9174;SDS011;54374;50.196;8.050;2022-09-02T13:12:11;1.70;;;1.10;;
9174;SDS011;54374;50.196;8.050;2022-09-02T13:15:22;3.43;;;1.53;;
9174;SDS011;54374;50.196;8.050;2022-09-02T13:18:04;1.53;;;1.30;;
9174;SDS011;54374;50.196;8.050;2022-09-02T13:21:01;2.70;;;1.27;;
9174;SDS011;54374;50.196;8.050;2022-09-02T13:23:49;1.63;;;1.20;;
9174;SDS011;54374;50.196;8.050;2022-09-02T13:26:42;2.77;;;1.40;;
9174;SDS011;54374;50.196;8.050;2022-09-02T13:32:23;1.20;;;1.10;;
9174;SDS011;54374;50.196;8.050;2022-09-02T13:34:51;1.37;;;1.27;;
9174;SDS011;54374;50.196;8.050;2022-09-02T13:37:32;1.67;;;1.13;;
9174;SDS011;54374;50.196;8.050;2022-09-02T13:40:02;1.33;;;1.00;;
9174;SDS011;54374;50.196;8.050;2022-09-02T13:42:33;2.13;;;1.30;;
9174;SDS011;54374;50.196;8.050;2022-09-02T13:45:08;3.93;;;1.50;;
9174;SDS011;54374;50.196;8.050;2022-09-02T13:47:42;3.77;;;1.27;;
9174;SDS011;54374;50.196;8.050;2022-09-02T13:50:12;1.37;;;1.20;;
9174;SDS011;54374;50.196;8.050;2022-09-02T13:52:42;2.40;;;1.37;;
9174;SDS011;54374;50.196;8.050;2022-09-02T13:55:12;1.20;;;1.10;;
9174;SDS011;54374;50.196;8.050;2022-09-02T13:57:44;2.10;;;1.40;;
9174;SDS011;54374;50.196;8.050;2022-09-02T14:00:25;1.60;;;1.50;;
9174;SDS011;54374;50.196;8.050;2022-09-02T14:02:55;2.53;;;1.30;;
9174;SDS011;54374;50.196;8.050;2022-09-02T14:05:23;1.20;;;1.10;;
9174;SDS011;54374;50.196;8.050;2022-09-02T14:07:52;1.73;;;1.20;;
9174;SDS011;54374;50.196;8.050;2022-09-02T14:10:22;2.10;;;1.13;;
9174;SDS011;54374;50.196;8.050;2022-09-02T14:12:53;1.70;;;1.13;;
9174;SDS011;54374;50.196;8.050;2022-09-02T14:15:25;1.20;;;1.03;;
9174;SDS011;54374;50.196;8.050;2022-09-02T14:18:09;3.00;;;1.37;;
9174;SDS011;54374;50.196;8.050;2022-09-02T14:20:39;8.23;;;1.67;;
9174;SDS011;54374;50.196;8.050;2022-09-02T14:23:20;3.63;;;1.50;;
9174;SDS011;54374;50.196;8.050;2022-09-02T14:25:49;1.70;;;1.20;;
9174;SDS011;54374;50.196;8.050;2022-09-02T14:28:20;1.83;;;1.40;;
9174;SDS011;54374;50.196;8.050;2022-09-02T14:30:59;2.30;;;1.37;;
9174;SDS011;54374;50.196;8.050;2022-09-02T14:33:36;2.70;;;1.20;;
9174;SDS011;54374;50.196;8.050;2022-09-02T14:36:06;1.17;;;1.07;;
9174;SDS011;54374;50.196;8.050;2022-09-02T14:38:35;5.03;;;1.10;;
9174;SDS011;54374;50.196;8.050;2022-09-02T14:41:17;1.83;;;1.43;;
9174;SDS011;54374;50.196;8.050;2022-09-02T14:43:49;2.20;;;1.27;;
9174;SDS011;54374;50.196;8.050;2022-09-02T14:46:25;4.00;;;1.10;;
9174;SDS011;54374;50.196;8.050;2022-09-02T14:48:54;4.20;;;1.10;;
9174;SDS011;54374;50.196;8.050;2022-09-02T14:51:26;1.40;;;1.20;;
9174;SDS011;54374;50.196;8.050;2022-09-02T14:53:58;1.20;;;1.10;;
9174;SDS011;54374;50.196;8.050;2022-09-02T14:56:41;1.43;;;1.13;;
9174;SDS011;54374;50.196;8.050;2022-09-02T14:59:14;1.40;;;1.30;;
9174;SDS011;54374;50.196;8.050;2022-09-02T15:01:42;3.20;;;1.00;;
9174;SDS011;54374;50.196;8.050;2022-09-02T15:04:11;2.60;;;1.20;;
9174;SDS011;54374;50.196;8.050;2022-09-02T15:06:39;3.20;;;1.20;;
9174;SDS011;54374;50.196;8.050;2022-09-02T15:09:06;1.57;;;1.30;;
9174;SDS011;54374;50.196;8.050;2022-09-02T15:11:34;1.50;;;1.07;;
9174;SDS011;54374;50.196;8.050;2022-09-02T15:14:02;1.60;;;1.13;;
9174;SDS011;54374;50.196;8.050;2022-09-02T15:16:30;1.20;;;1.00;;
9174;SDS011;54374;50.196;8.050;2022-09-02T15:18:57;2.07;;;0.90;;
9174;SDS011;54374;50.196;8.050;2022-09-02T15:21:24;1.20;;;1.10;;
9174;SDS011;54374;50.196;8.050;2022-09-02T15:23:51;1.13;;;1.03;;
9174;SDS011;54374;50.196;8.050;2022-09-02T15:26:18;1.57;;;0.90;;
9174;SDS011;54374;50.196;8.050;2022-09-02T15:28:45;1.60;;;0.90;;
9174;SDS011;54374;50.196;8.050;2022-09-02T15:31:13;1.57;;;1.00;;
9174;SDS011;54374;50.196;8.050;2022-09-02T15:33:42;2.50;;;1.20;;
9174;SDS011;54374;50.196;8.050;2022-09-02T15:36:15;2.10;;;1.10;;
9174;SDS011;54374;50.196;8.050;2022-09-02T15:38:43;1.00;;;0.90;;
9174;SDS011;54374;50.196;8.050;2022-09-02T15:41:14;1.93;;;1.23;;
9174;SDS011;54374;50.196;8.050;2022-09-02T15:43:42;1.23;;;1.10;;
9174;SDS011;54374;50.196;8.050;2022-09-02T15:46:15;1.53;;;1.30;;
9174;SDS011;54374;50.196;8.050;2022-09-02T15:48:46;1.37;;;0.90;;
9174;SDS011;54374;50.196;8.050;2022-09-02T15:51:14;3.40;;;0.97;;
9174;SDS011;54374;50.196;8.050;2022-09-02T15:53:42;1.77;;;0.93;;
9174;SDS011;54374;50.196;8.050;2022-09-02T15:56:16;3.23;;;1.13;;
9174;SDS011;54374;50.196;8.050;2022-09-02T15:58:44;5.90;;;1.00;;
9174;SDS011;54374;50.196;8.050;2022-09-02T16:01:11;2.37;;;1.10;;